Terminal Aerodrome Forecast
Issued by NWS Jackson, MS

Home | Current Version | Previous Version | Text Only | Print | Product List | Glossary On
Versions: 1 2 3 4 5 6 7 8 9 10 11 12 13
825
FTUS44 KMEG 252320
TAFTUP
TAF
KTUP 252320Z 2600/2624 00000KT P6SM SKC
      TEMPO 2609/2612 5SM BR
     FM261500 10005KT P6SM SCT050 SCT250
     FM262300 05003KT P6SM FEW060 FEW250=

USA.gov is the U.S. government's official web portal to all federal, state and local government web resources and services.